createdAt,value
2019-03-15T00:00:50.183Z,1.67
2019-03-15T00:03:25.543Z,1.70
2019-03-15T00:05:59.317Z,1.77
2019-03-15T00:08:35.217Z,1.60
2019-03-15T00:11:06.664Z,1.30
2019-03-15T00:13:39.619Z,1.40
2019-03-15T00:16:10.209Z,1.55
2019-03-15T00:18:47.054Z,1.52
2019-03-15T00:21:15.777Z,1.70
2019-03-15T00:23:52.223Z,1.42
2019-03-15T00:26:22.138Z,2.10
2019-03-15T00:28:51.984Z,1.70
2019-03-15T00:31:20.689Z,1.60
2019-03-15T00:33:51.643Z,1.47
2019-03-15T00:36:21.445Z,1.50
2019-03-15T00:39:06.388Z,1.70
2019-03-15T00:41:36.376Z,1.37
2019-03-15T00:44:05.040Z,1.33
2019-03-15T00:46:48.981Z,1.50
2019-03-15T00:49:36.012Z,1.77
2019-03-15T00:52:04.690Z,1.40
2019-03-15T00:54:35.417Z,1.47
2019-03-15T00:57:06.010Z,1.15
2019-03-15T00:59:36.609Z,1.50
2019-03-15T01:02:17.018Z,1.70
2019-03-15T01:04:54.430Z,1.50
2019-03-15T01:07:27.729Z,1.20
2019-03-15T01:09:57.642Z,1.50
2019-03-15T01:12:27.530Z,1.23
2019-03-15T01:14:59.588Z,1.35
2019-03-15T01:17:39.865Z,1.30
2019-03-15T01:20:19.406Z,1.17
2019-03-15T01:23:39.362Z,1.40
2019-03-15T01:26:28.112Z,1.32
2019-03-15T01:28:58.133Z,1.30
2019-03-15T01:31:27.357Z,1.20
2019-03-15T01:34:46.930Z,1.32
2019-03-15T01:37:31.281Z,1.40
2019-03-15T01:40:14.320Z,1.27
2019-03-15T01:42:44.435Z,1.22
2019-03-15T01:45:15.464Z,1.40
2019-03-15T01:47:51.331Z,1.40
2019-03-15T01:50:59.135Z,1.30
2019-03-15T01:53:33.747Z,1.40
2019-03-15T01:56:16.990Z,1.40
2019-03-15T01:59:08.615Z,1.50
2019-03-15T02:01:18.540Z,1.20
2019-03-15T02:04:09.041Z,1.30
2019-03-15T02:06:37.836Z,1.50
2019-03-15T02:09:09.465Z,1.35
2019-03-15T02:11:40.745Z,1.40
2019-03-15T02:14:20.184Z,1.30
2019-03-15T02:16:51.026Z,1.35
2019-03-15T02:22:31.695Z,1.32
2019-03-15T02:25:02.327Z,1.40
2019-03-15T02:27:49.434Z,1.42
2019-03-15T02:30:18.585Z,1.27
2019-03-15T02:32:47.322Z,1.60
2019-03-15T02:35:42.759Z,1.45
2019-03-15T02:38:18.709Z,1.67
2019-03-15T02:40:51.047Z,1.57
2019-03-15T02:43:27.946Z,1.32
2019-03-15T02:45:59.821Z,1.47
2019-03-15T02:48:35.576Z,1.57
2019-03-15T02:51:12.761Z,1.37
2019-03-15T02:53:41.711Z,1.50
2019-03-15T02:58:50.559Z,1.62
2019-03-15T03:01:59.013Z,1.30
2019-03-15T03:04:40.892Z,1.37
2019-03-15T03:11:25.588Z,1.75
2019-03-15T03:14:04.461Z,1.77
2019-03-15T03:17:01.579Z,1.70
2019-03-15T03:19:35.276Z,1.72
2019-03-15T03:22:30.482Z,1.40
2019-03-15T03:24:59.342Z,1.50
2019-03-15T03:27:34.376Z,1.50
2019-03-15T03:30:11.739Z,1.40
2019-03-15T03:32:44.252Z,1.60
2019-03-15T03:35:14.398Z,1.47
2019-03-15T03:38:03.635Z,1.52
2019-03-15T03:40:35.003Z,1.67
2019-03-15T03:43:25.757Z,1.32
2019-03-15T03:45:56.930Z,1.30
2019-03-15T03:48:27.900Z,1.37
2019-03-15T03:51:28.019Z,1.50
2019-03-15T03:53:59.353Z,1.60
2019-03-15T03:56:35.443Z,1.60
2019-03-15T03:59:18.448Z,1.60
2019-03-15T04:02:07.344Z,1.47
2019-03-15T04:04:38.153Z,8.45
2019-03-15T04:07:14.884Z,9.23
2019-03-15T04:10:00.429Z,10.30
2019-03-15T04:12:30.578Z,11.18
2019-03-15T04:15:00.607Z,11.28
2019-03-15T04:17:37.356Z,11.23
2019-03-15T04:20:13.989Z,12.28
2019-03-15T04:22:48.675Z,13.32
2019-03-15T04:25:18.330Z,13.90
2019-03-15T04:27:47.017Z,13.15
2019-03-15T04:30:16.912Z,14.87
2019-03-15T04:33:18.481Z,15.77
2019-03-15T04:39:15.177Z,16.27
2019-03-15T04:41:47.848Z,16.87
2019-03-15T04:44:47.230Z,15.90
2019-03-15T04:47:46.013Z,15.50
2019-03-15T04:50:44.532Z,15.48
2019-03-15T04:53:42.986Z,16.70
2019-03-15T04:56:24.611Z,16.00
2019-03-15T04:59:47.301Z,16.27
2019-03-15T05:02:45.808Z,16.17
2019-03-15T05:06:01.995Z,15.20
2019-03-15T05:08:48.314Z,16.60
2019-03-15T05:11:17.338Z,15.95
2019-03-15T05:13:46.972Z,15.45
2019-03-15T05:16:33.450Z,16.87
2019-03-15T05:19:47.558Z,15.60
2019-03-15T05:22:47.268Z,15.43
2019-03-15T05:32:08.532Z,16.30
2019-03-15T05:34:37.209Z,16.50
2019-03-15T05:37:13.684Z,16.77
2019-03-15T05:39:45.366Z,18.02
2019-03-15T05:45:46.662Z,16.70
2019-03-15T05:49:00.171Z,18.20
2019-03-15T05:51:47.590Z,17.25
2019-03-15T05:54:46.953Z,18.15
2019-03-15T05:57:17.924Z,18.77
2019-03-15T05:59:47.754Z,18.10
2019-03-15T06:02:44.685Z,18.23
2019-03-15T06:05:40.409Z,19.67
2019-03-15T06:08:53.929Z,19.27
2019-03-15T06:11:48.156Z,18.12
2019-03-15T06:14:47.841Z,17.73
2019-03-15T06:17:52.533Z,18.02
2019-03-15T06:20:45.137Z,19.23
2019-03-15T06:23:46.360Z,18.10
2019-03-15T06:26:33.543Z,18.07
2019-03-15T06:29:23.165Z,17.23
2019-03-15T06:35:23.365Z,18.25
2019-03-15T06:38:29.813Z,17.85
2019-03-15T06:41:40.012Z,17.00
2019-03-15T06:44:28.389Z,18.40
2019-03-15T06:46:57.417Z,18.25
2019-03-15T06:49:28.831Z,17.95
2019-03-15T06:52:20.877Z,18.45
2019-03-15T06:55:37.753Z,19.32
2019-03-15T06:58:48.507Z,18.92
2019-03-15T07:02:11.586Z,20.75
2019-03-15T07:05:35.716Z,20.65
2019-03-15T07:08:43.266Z,20.85
2019-03-15T07:11:12.018Z,21.25
2019-03-15T07:14:34.858Z,21.23
2019-03-15T07:17:17.595Z,20.35
2019-03-15T07:26:22.933Z,20.08
2019-03-15T07:28:52.746Z,19.65
2019-03-15T07:31:47.237Z,21.10
2019-03-15T07:34:19.012Z,21.40
2019-03-15T07:37:24.576Z,21.35
2019-03-15T07:40:29.174Z,20.95
2019-03-15T07:43:46.680Z,23.75
2019-03-15T07:46:45.195Z,22.70
2019-03-15T07:49:56.884Z,23.52
2019-03-15T07:52:26.844Z,22.15
2019-03-15T07:54:55.849Z,21.90
2019-03-15T07:57:25.746Z,25.20
2019-03-15T08:00:28.478Z,22.98
2019-03-15T08:03:28.193Z,30.77
2019-03-15T08:10:12.762Z,17.80
2019-03-15T08:13:06.356Z,18.02
2019-03-15T08:15:36.316Z,18.48
2019-03-15T08:18:06.233Z,18.60
2019-03-15T08:21:01.593Z,18.25
2019-03-15T08:24:30.317Z,18.52
2019-03-15T08:27:24.760Z,18.27
2019-03-15T08:30:15.394Z,17.45
2019-03-15T08:33:10.472Z,18.23
2019-03-15T08:35:38.129Z,17.98
2019-03-15T08:38:08.004Z,18.77
2019-03-15T08:40:36.979Z,17.30
2019-03-15T08:43:21.066Z,18.05
2019-03-15T08:49:50.885Z,17.15
2019-03-15T08:52:57.293Z,19.42
2019-03-15T08:55:48.126Z,19.00
2019-03-15T08:59:05.304Z,17.90
2019-03-15T09:01:54.917Z,18.80
2019-03-15T09:04:54.637Z,18.57
2019-03-15T09:07:47.294Z,19.15
2019-03-15T09:10:47.920Z,19.55
2019-03-15T09:13:49.021Z,19.05
2019-03-15T09:16:17.277Z,20.32
2019-03-15T09:18:46.281Z,20.27
2019-03-15T09:21:16.824Z,19.10
2019-03-15T09:24:09.425Z,21.57
2019-03-15T09:26:39.424Z,19.35
2019-03-15T09:29:39.036Z,20.37
2019-03-15T09:32:28.922Z,20.10
2019-03-15T09:34:57.649Z,20.82
2019-03-15T09:37:26.319Z,20.80
2019-03-15T09:39:57.160Z,20.97
2019-03-15T09:45:25.539Z,19.73
2019-03-15T09:48:16.032Z,19.87
2019-03-15T09:50:53.357Z,20.35
2019-03-15T09:53:23.271Z,20.85
2019-03-15T09:55:53.323Z,21.20
2019-03-15T09:58:23.040Z,20.33
2019-03-15T10:00:53.948Z,20.40
2019-03-15T10:07:17.093Z,19.32
2019-03-15T10:10:12.890Z,21.55
2019-03-15T10:13:06.231Z,21.97
2019-03-15T10:15:50.388Z,22.47
2019-03-15T10:18:43.861Z,22.07
2019-03-15T10:22:07.068Z,20.23
2019-03-15T10:24:35.977Z,22.05
2019-03-15T10:27:12.690Z,22.52
2019-03-15T10:30:37.551Z,23.05
2019-03-15T10:36:46.830Z,23.00
2019-03-15T10:40:11.805Z,23.42
2019-03-15T10:43:16.374Z,23.75
2019-03-15T10:46:15.412Z,22.17
2019-03-15T10:49:20.094Z,21.95
2019-03-15T10:52:21.644Z,21.35
2019-03-15T10:55:22.851Z,21.50
2019-03-15T10:57:51.514Z,22.13
2019-03-15T11:01:17.750Z,21.70
2019-03-15T11:03:46.690Z,21.35
2019-03-15T11:07:00.505Z,21.33
2019-03-15T11:10:05.718Z,22.13
2019-03-15T11:13:10.063Z,22.42
2019-03-15T11:15:38.739Z,20.77
2019-03-15T11:25:00.724Z,26.20
2019-03-15T11:28:14.442Z,24.45
2019-03-15T11:30:44.178Z,22.30
2019-03-15T11:33:23.881Z,21.85
2019-03-15T11:39:56.193Z,21.73
2019-03-15T11:43:18.834Z,23.80
2019-03-15T11:46:16.340Z,24.02
2019-03-15T11:49:02.118Z,23.95
2019-03-15T11:51:37.774Z,24.20
2019-03-15T11:57:46.759Z,25.37
2019-03-15T12:00:30.192Z,23.95
2019-03-15T12:03:16.704Z,24.10
2019-03-15T12:06:27.393Z,23.40
2019-03-15T12:09:08.061Z,27.70
2019-03-15T12:12:30.826Z,28.42
2019-03-15T12:15:32.718Z,24.85
2019-03-15T12:18:04.198Z,23.90
2019-03-15T12:20:49.301Z,24.02
2019-03-15T12:23:34.114Z,25.35
2019-03-15T12:26:05.558Z,25.23
2019-03-15T12:28:35.503Z,25.55
2019-03-15T12:31:58.650Z,26.13
2019-03-15T12:35:06.105Z,24.50
2019-03-15T12:37:57.034Z,23.92
2019-03-15T12:40:36.857Z,25.50
2019-03-15T12:43:36.795Z,26.42
2019-03-15T12:46:05.527Z,29.15
2019-03-15T12:48:35.410Z,27.70
2019-03-15T12:51:38.469Z,24.93
2019-03-15T12:57:49.402Z,23.75
2019-03-15T13:00:39.783Z,25.75
2019-03-15T13:03:08.801Z,26.23
2019-03-15T13:05:55.032Z,23.67
2019-03-15T13:09:14.621Z,23.70
2019-03-15T13:12:37.369Z,22.60
2019-03-15T13:15:51.524Z,22.22
2019-03-15T13:19:03.684Z,20.82
2019-03-15T13:27:40.534Z,20.17
2019-03-15T13:30:11.458Z,20.08
2019-03-15T13:35:08.956Z,19.17
2019-03-15T13:37:37.679Z,19.17
2019-03-15T13:40:09.523Z,20.92
2019-03-15T13:42:38.200Z,19.57
2019-03-15T13:45:11.134Z,19.57
2019-03-15T13:47:39.849Z,20.50
2019-03-15T13:50:13.705Z,19.20
2019-03-15T13:52:42.375Z,19.67
2019-03-15T13:55:11.046Z,20.25
2019-03-15T13:57:39.718Z,19.42
2019-03-15T14:00:13.503Z,41.65
2019-03-15T14:02:42.173Z,42.83
2019-03-15T14:05:10.848Z,197.60
2019-03-15T14:07:39.533Z,83.92
2019-03-15T14:10:14.280Z,47.67
2019-03-15T14:12:42.956Z,29.10
2019-03-15T14:15:18.654Z,46.65
2019-03-15T14:17:47.333Z,25.50
2019-03-15T14:20:16.011Z,36.38
2019-03-15T14:22:44.673Z,20.75
2019-03-15T14:25:27.124Z,20.10
2019-03-15T14:27:55.925Z,19.32
2019-03-15T14:30:24.578Z,19.52
2019-03-15T14:32:53.248Z,19.17
2019-03-15T14:35:21.927Z,20.55
2019-03-15T14:37:50.723Z,22.00
2019-03-15T14:40:19.471Z,20.52
2019-03-15T14:42:48.204Z,21.42
2019-03-15T14:45:17.122Z,19.90
2019-03-15T14:47:45.782Z,19.73
2019-03-15T14:50:14.945Z,21.48
2019-03-15T14:52:43.632Z,21.12
2019-03-15T14:55:13.298Z,22.93
2019-03-15T14:57:51.911Z,20.75
2019-03-15T15:00:14.095Z,21.60
2019-03-15T15:02:42.798Z,21.90
2019-03-15T15:05:12.251Z,23.98
2019-03-15T15:07:41.095Z,21.77
2019-03-15T15:10:11.929Z,21.57
2019-03-15T15:15:17.493Z,22.13
2019-03-15T15:17:46.161Z,22.02
2019-03-15T15:20:15.794Z,22.70
2019-03-15T15:22:44.453Z,22.15
2019-03-15T15:25:14.126Z,23.27
2019-03-15T15:27:42.805Z,23.42
2019-03-15T15:30:16.299Z,23.55
2019-03-15T15:32:44.978Z,24.87
2019-03-15T15:35:14.037Z,25.15
2019-03-15T15:37:42.712Z,26.45
2019-03-15T15:40:20.832Z,26.42
2019-03-15T15:42:49.500Z,26.50
2019-03-15T15:45:18.172Z,26.35
2019-03-15T15:47:46.847Z,26.23
2019-03-15T15:50:15.913Z,26.45
2019-03-15T15:52:44.585Z,26.35
2019-03-15T15:55:15.430Z,28.10
2019-03-15T16:00:16.014Z,30.27
2019-03-15T16:02:44.754Z,30.37
2019-03-15T16:05:13.475Z,30.05
2019-03-15T16:07:42.141Z,29.48
2019-03-15T16:10:17.994Z,29.23
2019-03-15T16:12:45.535Z,28.40
2019-03-15T16:15:16.163Z,27.32
2019-03-15T16:17:45.997Z,20.97
2019-03-15T16:20:14.774Z,21.93
2019-03-15T16:22:43.447Z,21.07
2019-03-15T16:25:12.409Z,17.25
2019-03-15T16:27:41.085Z,16.42
2019-03-15T16:30:17.457Z,16.80
2019-03-15T16:32:46.141Z,14.28
2019-03-15T16:35:14.946Z,13.40
2019-03-15T16:37:43.689Z,13.13
2019-03-15T16:40:13.488Z,13.35
2019-03-15T16:42:42.161Z,13.72
2019-03-15T16:45:19.061Z,14.07
2019-03-15T16:47:47.809Z,15.53
2019-03-15T16:50:16.482Z,16.55
2019-03-15T16:52:45.148Z,18.25
2019-03-15T16:55:13.824Z,17.92
2019-03-15T16:57:42.493Z,18.17
2019-03-15T17:00:15.948Z,18.20
2019-03-15T17:02:44.598Z,18.20
2019-03-15T17:05:13.671Z,17.42
2019-03-15T17:07:42.540Z,17.85
2019-03-15T17:10:16.294Z,18.60
2019-03-15T17:12:45.056Z,18.60
2019-03-15T17:15:20.482Z,19.02
2019-03-15T17:17:49.150Z,18.80
2019-03-15T17:20:18.038Z,18.73
2019-03-15T17:22:46.713Z,18.57
2019-03-15T17:25:15.389Z,17.87
2019-03-15T17:27:44.069Z,17.52
2019-03-15T17:30:16.706Z,17.02
2019-03-15T17:32:50.421Z,17.65
2019-03-15T17:35:35.637Z,15.75
2019-03-15T17:38:06.516Z,15.98
2019-03-15T17:43:19.215Z,15.38
2019-03-15T17:45:51.551Z,16.45
2019-03-15T17:48:38.519Z,16.90
2019-03-15T17:51:08.897Z,17.20
2019-03-15T17:53:38.513Z,16.07
2019-03-15T17:56:17.002Z,15.25
2019-03-15T17:59:11.795Z,16.27
2019-03-15T18:01:35.162Z,15.75
2019-03-15T18:06:49.621Z,15.00
2019-03-15T18:09:23.149Z,15.63
2019-03-15T18:11:54.443Z,15.65
2019-03-15T18:14:25.994Z,15.20
2019-03-15T18:16:56.733Z,15.50
2019-03-15T18:19:35.024Z,16.30
2019-03-15T18:22:03.791Z,16.87
2019-03-15T18:24:43.167Z,16.70
2019-03-15T18:27:11.835Z,16.23
2019-03-15T18:29:42.136Z,16.70
2019-03-15T18:32:12.185Z,18.92
2019-03-15T18:34:41.646Z,16.82
2019-03-15T18:37:13.592Z,16.97
2019-03-15T18:39:43.333Z,18.37
2019-03-15T18:42:13.192Z,19.25
2019-03-15T18:44:44.156Z,16.85
2019-03-15T18:47:21.013Z,16.70
2019-03-15T18:49:58.617Z,17.27
2019-03-15T18:52:30.680Z,17.30
2019-03-15T18:55:05.655Z,17.12
2019-03-15T18:57:35.441Z,19.00
2019-03-15T19:00:06.751Z,20.95
2019-03-15T19:02:39.240Z,19.45
2019-03-15T19:05:18.721Z,18.35
2019-03-15T19:08:11.661Z,18.23
2019-03-15T19:10:55.221Z,17.87
2019-03-15T19:13:38.257Z,16.85
2019-03-15T19:16:19.994Z,18.30
2019-03-15T19:19:28.754Z,17.48
2019-03-15T19:22:03.259Z,18.45
2019-03-15T19:24:40.105Z,17.80
2019-03-15T19:27:08.777Z,16.70
2019-03-15T19:29:37.478Z,15.80
2019-03-15T19:32:06.229Z,15.85
2019-03-15T19:34:35.156Z,17.15
2019-03-15T19:37:03.993Z,16.15
2019-03-15T19:39:33.977Z,16.07
2019-03-15T19:42:03.577Z,16.17
2019-03-15T19:44:32.477Z,15.05
2019-03-15T19:47:01.158Z,16.75
2019-03-15T19:49:29.837Z,15.63
2019-03-15T19:52:00.670Z,15.40
2019-03-15T19:57:00.183Z,16.15
2019-03-15T19:59:28.880Z,15.83
2019-03-15T20:01:57.553Z,16.27
2019-03-15T20:04:26.265Z,17.02
2019-03-15T20:06:56.190Z,16.05
2019-03-15T20:09:26.092Z,17.17
2019-03-15T20:11:54.777Z,17.50
2019-03-15T20:14:25.621Z,16.97
2019-03-15T20:19:22.438Z,16.30
2019-03-15T20:21:51.357Z,17.40
2019-03-15T20:24:20.391Z,17.10
2019-03-15T20:26:51.190Z,17.60
2019-03-15T20:31:48.283Z,17.30
2019-03-15T20:34:22.918Z,17.77
2019-03-15T20:36:56.103Z,17.37
2019-03-15T20:39:26.020Z,18.67
2019-03-15T20:41:54.723Z,18.77
2019-03-15T20:44:28.366Z,17.42
2019-03-15T20:46:53.949Z,17.70
2019-03-15T20:49:22.883Z,17.62
2019-03-15T20:51:51.554Z,19.15
2019-03-15T20:54:20.233Z,18.42
2019-03-15T20:56:50.233Z,18.00
2019-03-15T20:59:19.152Z,17.67
2019-03-15T21:01:49.150Z,17.55
2019-03-15T21:04:18.969Z,16.90
2019-03-15T21:06:47.688Z,18.40
2019-03-15T21:09:16.360Z,18.35
2019-03-15T21:11:45.034Z,18.95
2019-03-15T21:14:13.701Z,19.35
2019-03-15T21:16:43.677Z,20.30
2019-03-15T21:19:12.345Z,19.03
2019-03-15T21:21:41.717Z,19.82
2019-03-15T21:24:11.000Z,18.75
2019-03-15T21:26:41.611Z,19.60
2019-03-15T21:29:31.263Z,18.98
2019-03-15T21:32:05.766Z,19.85
2019-03-15T21:34:34.616Z,20.60
2019-03-15T21:37:03.595Z,20.57
2019-03-15T21:39:33.269Z,20.88
2019-03-15T21:42:03.081Z,21.52
2019-03-15T21:44:31.749Z,21.60
2019-03-15T21:47:02.593Z,22.85
2019-03-15T21:52:08.279Z,22.13
2019-03-15T21:54:39.417Z,22.52
2019-03-15T21:57:26.253Z,22.45
2019-03-15T22:00:01.980Z,20.65
2019-03-15T22:02:41.777Z,21.75
2019-03-15T22:05:10.771Z,21.82
2019-03-15T22:07:45.146Z,21.12
2019-03-15T22:10:26.893Z,22.80
2019-03-15T22:13:08.424Z,22.58
2019-03-15T22:15:42.962Z,20.97
2019-03-15T22:18:29.776Z,20.50
2019-03-15T22:21:01.212Z,21.65
2019-03-15T22:23:42.841Z,22.05
2019-03-15T22:26:48.320Z,20.85
2019-03-15T22:29:26.240Z,20.97
2019-03-15T22:32:10.013Z,22.87
2019-03-15T22:34:44.297Z,20.62
2019-03-15T22:37:13.753Z,20.57
2019-03-15T22:39:48.361Z,21.75
2019-03-15T22:42:17.041Z,23.18
2019-03-15T22:44:45.667Z,23.15
2019-03-15T22:47:17.877Z,22.07
2019-03-15T22:49:47.665Z,21.80
2019-03-15T22:52:31.711Z,22.82
2019-03-15T22:55:33.009Z,23.60
2019-03-15T22:58:01.993Z,24.43
2019-03-15T23:00:36.885Z,25.02
2019-03-15T23:03:38.689Z,26.15
2019-03-15T23:06:25.201Z,25.23
2019-03-15T23:09:07.684Z,27.00
2019-03-15T23:11:48.394Z,27.30
2019-03-15T23:14:24.101Z,28.62
2019-03-15T23:16:52.776Z,28.65
2019-03-15T23:19:30.064Z,29.52
2019-03-15T23:22:20.898Z,28.17
2019-03-15T23:24:51.408Z,28.23
2019-03-15T23:27:21.352Z,28.35
2019-03-15T23:29:57.084Z,28.83
2019-03-15T23:32:27.036Z,28.90
2019-03-15T23:35:15.697Z,29.93
2019-03-15T23:38:44.364Z,28.12
2019-03-15T23:41:15.730Z,27.27
2019-03-15T23:44:01.649Z,28.90
2019-03-15T23:46:34.587Z,27.10
2019-03-15T23:49:05.378Z,28.47
2019-03-15T23:54:20.569Z,25.70
2019-03-15T23:57:42.436Z,28.15
